Terminal Aerodrome Forecast
Issued by NWS Denver/Boulder, CO

Home | Current Version | Previous Version | Text Only | Print | Product List | Glossary On
Versions: 1 2 3 4 5 6 7 8 9 10 11 12 13 14 15 16 17 18 19 20 21 22 23 24 25 26 27 28 29 30 31 32 33 34 35 36 37 38 39 40 41
000
FTUS45 KBOU 301136
TAFDEN
TAF
KDEN 301136Z 3012/0118 34014KT P6SM FEW060 SCT150
     FM301600 34014G22KT P6SM FEW150
     FM301900 35016G26KT P6SM SCT150
     FM010100 34012KT P6SM SCT100 BKN180
     FM010500 23010KT P6SM SCT090 BKN160
     FM011500 32012KT P6SM SCT080 BKN150=

USA.gov is the U.S. government's official web portal to all federal, state and local government web resources and services.